createdAt,value
2022-08-17T00:02:26.412Z,97921.06
2022-08-17T00:04:54.705Z,97925.13
2022-08-17T00:07:21.758Z,97931.09
2022-08-17T00:09:48.305Z,97933.25
2022-08-17T00:12:40.696Z,97934.88
2022-08-17T00:15:01.899Z,97942.50
2022-08-17T00:17:28.431Z,97947.38
2022-08-17T00:19:54.910Z,97956.91
2022-08-17T00:22:35.052Z,97959.09
2022-08-17T00:25:09.141Z,97969.25
2022-08-17T00:27:36.829Z,97978.25
2022-08-17T00:30:06.072Z,97996.97
2022-08-17T00:33:16.081Z,98002.69
2022-08-17T00:35:32.190Z,98018.88
2022-08-17T00:37:58.630Z,98032.50
2022-08-17T00:40:25.169Z,98041.53
2022-08-17T00:42:53.246Z,98043.41
2022-08-17T00:45:20.785Z,98050.75
2022-08-17T00:47:47.971Z,98059.16
2022-08-17T00:50:18.583Z,98062.13
2022-08-17T00:52:54.064Z,98063.16
2022-08-17T00:55:21.232Z,98068.44
2022-08-17T00:57:55.237Z,98069.50
2022-08-17T01:00:26.692Z,98062.09
2022-08-17T01:03:02.005Z,98060.25
2022-08-17T01:05:32.792Z,98067.88
2022-08-17T01:08:02.406Z,98077.31
2022-08-17T01:11:00.628Z,98079.78
2022-08-17T01:13:24.497Z,98073.59
2022-08-17T01:15:57.277Z,98084.22
2022-08-17T01:18:25.421Z,98084.22
2022-08-17T01:20:54.080Z,98087.28
2022-08-17T01:23:23.412Z,98090.38
2022-08-17T01:25:52.249Z,98101.88
2022-08-17T01:28:53.030Z,98090.53
2022-08-17T01:31:08.327Z,98101.09
2022-08-17T01:33:34.920Z,98101.66
2022-08-17T01:36:01.736Z,98099.19
2022-08-17T01:38:31.683Z,98093.94
2022-08-17T01:41:06.371Z,98107.34
2022-08-17T01:43:39.873Z,98094.66
2022-08-17T01:46:06.429Z,98099.69
2022-08-17T01:48:34.781Z,98093.25
2022-08-17T01:51:01.316Z,98093.50
2022-08-17T01:53:33.524Z,98098.41
2022-08-17T01:56:06.678Z,98100.91
2022-08-17T01:58:34.752Z,98090.28
2022-08-17T02:01:03.725Z,98089.72
2022-08-17T02:03:30.428Z,98091.59
2022-08-17T02:05:57.475Z,98089.19
2022-08-17T02:08:38.749Z,98085.63
2022-08-17T02:11:11.711Z,98093.00
2022-08-17T02:13:38.985Z,98090.56
2022-08-17T02:16:05.488Z,98083.75
2022-08-17T02:18:31.946Z,98083.75
2022-08-17T02:20:59.180Z,98073.38
2022-08-17T02:23:30.137Z,98075.00
2022-08-17T02:25:58.924Z,98083.19
2022-08-17T02:28:28.348Z,98092.72
2022-08-17T02:31:01.518Z,98097.38
2022-08-17T02:33:41.803Z,98087.84
2022-08-17T02:36:11.512Z,98088.13
2022-08-17T02:38:39.690Z,98088.94
2022-08-17T02:41:06.782Z,98087.09
2022-08-17T02:43:33.242Z,98101.22
2022-08-17T02:45:59.859Z,98103.38
2022-08-17T02:48:30.391Z,98112.06
2022-08-17T02:50:59.449Z,98111.84
2022-08-17T02:53:26.244Z,98109.97
2022-08-17T02:55:53.090Z,98120.13
2022-08-17T02:58:34.532Z,98126.13
2022-08-17T03:01:06.873Z,98136.28
2022-08-17T03:03:34.692Z,98138.97
2022-08-17T03:06:01.513Z,98147.03
2022-08-17T03:08:28.227Z,98148.91
2022-08-17T03:10:55.027Z,98149.28
2022-08-17T03:13:22.149Z,98149.88
2022-08-17T03:15:49.258Z,98151.75
2022-08-17T03:18:24.308Z,98157.47
2022-08-17T03:20:59.313Z,98156.63
2022-08-17T03:23:27.435Z,98153.34
2022-08-17T03:25:55.566Z,98159.41
2022-08-17T03:28:23.361Z,98160.53
2022-08-17T03:30:51.091Z,98173.31
2022-08-17T03:33:18.060Z,98177.34
2022-08-17T03:35:44.652Z,98178.72
2022-08-17T03:38:12.717Z,98168.63
2022-08-17T03:40:57.101Z,98163.44
2022-08-17T03:43:28.374Z,98162.59
2022-08-17T03:46:27.363Z,98165.03
2022-08-17T03:49:17.720Z,98159.56
2022-08-17T03:52:02.472Z,98158.13
2022-08-17T03:54:47.268Z,98144.16
2022-08-17T03:57:13.847Z,98159.31
2022-08-17T03:59:41.551Z,98166.50
2022-08-17T04:02:11.428Z,98173.16
2022-08-17T04:04:38.871Z,98162.06
2022-08-17T04:07:06.171Z,98156.41
2022-08-17T04:09:32.985Z,98145.97
2022-08-17T04:12:02.339Z,98141.09
2022-08-17T04:14:36.062Z,98145.16
2022-08-17T04:17:12.472Z,98139.88
2022-08-17T04:19:38.903Z,98138.16
2022-08-17T04:22:05.666Z,98142.81
2022-08-17T04:24:33.492Z,98151.25
2022-08-17T04:27:01.568Z,98139.63
2022-08-17T04:29:28.021Z,98130.63
2022-08-17T04:32:14.619Z,98143.44
2022-08-17T04:34:41.091Z,98155.16
2022-08-17T04:37:08.609Z,98171.19
2022-08-17T04:39:35.102Z,98158.59
2022-08-17T04:42:07.381Z,98149.75
2022-08-17T04:44:37.795Z,98148.91
2022-08-17T04:47:05.012Z,98150.16
2022-08-17T04:49:32.486Z,98149.38
2022-08-17T04:52:04.124Z,98160.94
2022-08-17T04:54:31.457Z,98177.03
2022-08-17T04:56:57.896Z,98189.06
2022-08-17T04:59:24.261Z,98173.81
2022-08-17T05:01:52.120Z,98179.84
2022-08-17T05:04:34.105Z,98190.06
2022-08-17T05:07:02.106Z,98200.66
2022-08-17T05:09:28.968Z,98218.13
2022-08-17T05:11:55.449Z,98215.16
2022-08-17T05:14:33.018Z,98214.78
2022-08-17T05:17:00.485Z,98219.75
2022-08-17T05:19:27.691Z,98215.50
2022-08-17T05:21:54.121Z,98210.88
2022-08-17T05:24:42.777Z,98204.97
2022-08-17T05:27:07.404Z,98191.50
2022-08-17T05:29:35.479Z,98211.94
2022-08-17T05:32:39.220Z,98210.56
2022-08-17T05:35:00.367Z,98199.19
2022-08-17T05:37:27.136Z,98195.16
2022-08-17T05:39:53.915Z,98188.69
2022-08-17T05:42:21.015Z,98182.75
2022-08-17T05:44:47.506Z,98184.59
2022-08-17T05:47:13.884Z,98200.53
2022-08-17T05:49:40.429Z,98200.28
2022-08-17T05:52:33.313Z,98193.13
2022-08-17T05:55:33.156Z,98182.66
2022-08-17T05:58:14.900Z,98163.81
2022-08-17T06:01:17.806Z,98160.25
2022-08-17T06:04:28.619Z,98147.31
2022-08-17T06:07:00.956Z,98157.63
2022-08-17T06:09:38.269Z,98150.88
2022-08-17T06:12:32.110Z,98131.13
2022-08-17T06:15:26.175Z,98129.56
2022-08-17T06:17:57.440Z,98126.13
2022-08-17T06:20:27.693Z,98111.50
2022-08-17T06:23:02.580Z,98108.16
2022-08-17T06:25:34.771Z,98093.16
2022-08-17T06:28:14.581Z,98086.38
2022-08-17T06:31:00.862Z,98075.00
2022-08-17T06:33:35.564Z,98079.19
2022-08-17T06:36:36.828Z,98076.91
2022-08-17T06:39:19.850Z,98068.25
2022-08-17T06:41:58.376Z,98065.38
2022-08-17T06:44:47.609Z,98067.22
2022-08-17T06:47:28.949Z,98066.50
2022-08-17T06:50:24.660Z,98074.88
2022-08-17T06:53:02.780Z,98064.81
2022-08-17T06:55:44.027Z,98057.41
2022-08-17T06:58:16.200Z,98054.13
2022-08-17T07:00:45.995Z,98074.81
2022-08-17T07:03:23.832Z,98079.19
2022-08-17T07:06:32.667Z,98077.66
2022-08-17T07:09:14.613Z,98088.31
2022-08-17T07:11:49.197Z,98097.47
2022-08-17T07:14:27.715Z,98102.41
2022-08-17T07:16:56.523Z,98116.91
2022-08-17T07:19:26.886Z,98123.97
2022-08-17T07:22:07.717Z,98125.63
2022-08-17T07:24:47.299Z,98125.81
2022-08-17T07:27:37.219Z,98133.72
2022-08-17T07:30:16.336Z,98119.31
2022-08-17T07:32:47.619Z,98109.50
2022-08-17T07:35:31.116Z,98103.38
2022-08-17T07:38:25.967Z,98098.41
2022-08-17T07:41:05.852Z,98090.56
2022-08-17T07:43:39.355Z,98081.06
2022-08-17T07:46:30.400Z,98062.19
2022-08-17T07:49:08.736Z,98070.41
2022-08-17T07:51:44.292Z,98067.34
2022-08-17T07:54:22.299Z,98061.63
2022-08-17T07:56:54.907Z,98069.28
2022-08-17T07:59:25.631Z,98081.72
2022-08-17T08:01:58.336Z,98084.59
2022-08-17T08:04:59.313Z,98088.75
2022-08-17T08:07:31.899Z,98084.25
2022-08-17T08:10:29.399Z,98089.50
2022-08-17T08:13:14.281Z,98090.78
2022-08-17T08:15:54.342Z,98089.97
2022-08-17T08:18:54.473Z,98097.91
2022-08-17T08:21:21.926Z,98097.69
2022-08-17T08:24:14.832Z,98101.88
2022-08-17T08:27:17.217Z,98111.78
2022-08-17T08:29:55.512Z,98108.22
2022-08-17T08:32:36.849Z,98119.03
2022-08-17T08:35:13.748Z,98140.34
2022-08-17T08:37:52.389Z,98155.19
2022-08-17T08:40:43.960Z,98167.69
2022-08-17T08:43:30.943Z,98172.41
2022-08-17T08:46:24.306Z,98168.28
2022-08-17T08:49:06.490Z,98176.53
2022-08-17T08:51:47.016Z,98189.94
2022-08-17T08:54:37.364Z,98200.88
2022-08-17T08:57:27.805Z,98209.28
2022-08-17T09:00:04.885Z,98220.19
2022-08-17T09:03:02.545Z,98232.88
2022-08-17T09:05:31.751Z,98245.06
2022-08-17T09:08:21.922Z,98249.50
2022-08-17T09:11:04.915Z,98238.78
2022-08-17T09:13:40.250Z,98243.56
2022-08-17T09:16:16.530Z,98236.94
2022-08-17T09:19:01.563Z,98271.78
2022-08-17T09:21:48.652Z,98348.44
2022-08-17T09:24:43.513Z,98331.97
2022-08-17T09:27:21.637Z,98384.22
2022-08-17T09:29:53.958Z,98387.69
2022-08-17T09:32:41.078Z,98388.22
2022-08-17T09:35:24.991Z,98386.41
2022-08-17T09:38:13.251Z,98384.84
2022-08-17T09:41:05.163Z,98389.38
2022-08-17T09:43:41.296Z,98385.56
2022-08-17T09:46:18.172Z,98382.47
2022-08-17T09:48:50.269Z,98363.69
2022-08-17T09:51:34.923Z,98372.72
2022-08-17T09:54:21.390Z,98374.59
2022-08-17T09:57:27.955Z,98373.41
2022-08-17T10:00:10.264Z,98358.81
2022-08-17T10:03:19.728Z,98335.13
2022-08-17T10:05:58.700Z,98330.22
2022-08-17T10:08:52.963Z,98327.88
2022-08-17T10:11:45.590Z,98322.75
2022-08-17T10:14:37.252Z,98304.84
2022-08-17T10:17:22.699Z,98270.47
2022-08-17T10:19:59.190Z,98231.13
2022-08-17T10:23:05.876Z,98233.97
2022-08-17T10:25:55.931Z,98260.03
2022-08-17T10:28:30.459Z,98259.97
2022-08-17T10:31:30.807Z,98254.78
2022-08-17T10:34:27.801Z,98260.69
2022-08-17T10:36:57.389Z,98234.16
2022-08-17T10:39:52.884Z,98230.09
2022-08-17T10:42:36.543Z,98198.38
2022-08-17T10:45:06.389Z,98198.41
2022-08-17T10:48:06.837Z,98196.78
2022-08-17T10:51:05.979Z,98189.75
2022-08-17T10:53:32.426Z,98204.53
2022-08-17T10:56:14.032Z,98206.75
2022-08-17T10:59:00.429Z,98206.44
2022-08-17T11:01:58.244Z,98208.13
2022-08-17T11:04:40.851Z,98208.97
2022-08-17T11:07:25.739Z,98207.91
2022-08-17T11:10:15.940Z,98201.69
2022-08-17T11:13:09.003Z,98203.06
2022-08-17T11:15:48.368Z,98206.88
2022-08-17T11:18:38.491Z,98211.50
2022-08-17T11:21:39.082Z,98213.91
2022-08-17T11:24:36.004Z,98214.34
2022-08-17T11:27:22.391Z,98217.09
2022-08-17T11:30:06.343Z,98209.84
2022-08-17T11:32:52.012Z,98214.25
2022-08-17T11:35:21.297Z,98202.69
2022-08-17T11:38:18.337Z,98202.94
2022-08-17T11:41:03.312Z,98194.19
2022-08-17T11:44:02.073Z,98188.44
2022-08-17T11:46:57.206Z,98196.53
2022-08-17T11:49:58.052Z,98187.13
2022-08-17T11:52:39.563Z,98191.16
2022-08-17T11:55:34.028Z,98195.66
2022-08-17T11:58:03.411Z,98195.50
2022-08-17T12:00:44.794Z,98185.00
2022-08-17T12:03:33.271Z,98177.91
2022-08-17T12:06:07.245Z,98173.16
2022-08-17T12:08:41.675Z,98162.28
2022-08-17T12:11:57.796Z,98166.13
2022-08-17T12:14:06.886Z,98170.97
2022-08-17T12:16:33.494Z,98165.97
2022-08-17T12:19:02.673Z,98158.16
2022-08-17T12:21:44.982Z,98163.13
2022-08-17T12:24:19.440Z,98159.78
2022-08-17T12:26:52.926Z,98161.72
2022-08-17T12:29:38.358Z,98161.09
2022-08-17T12:32:07.004Z,98160.03
2022-08-17T12:34:40.636Z,98153.34
2022-08-17T12:37:16.608Z,98156.09
2022-08-17T12:40:20.918Z,98139.13
2022-08-17T12:42:55.448Z,98140.31
2022-08-17T12:45:31.432Z,98138.50
2022-08-17T12:48:07.623Z,98142.78
2022-08-17T12:50:38.446Z,98141.47
2022-08-17T12:53:16.759Z,98132.09
2022-08-17T12:55:44.334Z,98133.84
2022-08-17T12:58:15.302Z,98134.22
2022-08-17T13:00:49.665Z,98128.81
2022-08-17T13:03:20.117Z,98130.44
2022-08-17T13:05:52.787Z,98126.34
2022-08-17T13:08:24.416Z,98125.69
2022-08-17T13:11:22.430Z,98121.97
2022-08-17T13:13:51.809Z,98134.47
2022-08-17T13:16:22.129Z,98129.34
2022-08-17T13:19:08.857Z,98127.88
2022-08-17T13:21:37.841Z,98125.09
2022-08-17T13:24:19.189Z,98117.38
2022-08-17T13:26:54.350Z,98102.97
2022-08-17T13:29:26.147Z,98097.69
2022-08-17T13:31:58.905Z,98098.19
2022-08-17T13:34:41.141Z,98099.53
2022-08-17T13:37:34.848Z,98097.13
2022-08-17T13:40:21.236Z,98087.34
2022-08-17T13:42:55.601Z,98086.03
2022-08-17T13:45:36.483Z,98083.59
2022-08-17T13:48:11.128Z,98086.16
2022-08-17T13:51:05.585Z,98073.88
2022-08-17T13:53:50.796Z,98071.41
2022-08-17T13:56:45.113Z,98054.28
2022-08-17T13:59:17.048Z,98061.03
2022-08-17T14:02:04.748Z,98063.19
2022-08-17T14:04:32.684Z,98076.34
2022-08-17T14:07:25.750Z,98069.22
2022-08-17T14:09:57.954Z,98064.53
2022-08-17T14:12:27.197Z,98060.53
2022-08-17T14:14:56.326Z,98059.41
2022-08-17T14:17:24.590Z,98067.28
2022-08-17T14:19:51.496Z,98076.25
2022-08-17T14:22:23.632Z,98088.09
2022-08-17T14:24:51.289Z,98092.03
2022-08-17T14:27:18.579Z,98091.50
2022-08-17T14:29:45.115Z,98083.97
2022-08-17T14:32:19.099Z,98081.88
2022-08-17T14:34:46.116Z,98079.88
2022-08-17T14:37:12.954Z,98074.50
2022-08-17T14:39:39.740Z,98074.16
2022-08-17T14:42:06.487Z,98087.19
2022-08-17T14:44:33.032Z,98073.41
2022-08-17T14:46:59.579Z,98074.16
2022-08-17T14:49:26.054Z,98076.09
2022-08-17T14:51:52.797Z,98075.03
2022-08-17T14:54:33.013Z,98066.03
2022-08-17T14:57:23.064Z,98058.72
2022-08-17T14:59:48.843Z,98065.56
2022-08-17T15:02:19.484Z,98062.94
2022-08-17T15:04:47.636Z,98067.78
2022-08-17T15:07:14.976Z,98057.28
2022-08-17T15:09:41.508Z,98063.34
2022-08-17T15:12:08.623Z,98070.22
2022-08-17T15:14:36.237Z,98071.50
2022-08-17T15:17:03.705Z,98055.41
2022-08-17T15:19:30.132Z,98055.56
2022-08-17T15:21:56.663Z,98072.66
2022-08-17T15:24:23.115Z,98080.47
2022-08-17T15:26:49.838Z,98065.72
2022-08-17T15:29:16.285Z,98061.31
2022-08-17T15:31:43.352Z,98072.34
2022-08-17T15:34:09.858Z,98089.38
2022-08-17T15:36:36.988Z,98080.91
2022-08-17T15:39:05.288Z,98070.84
2022-08-17T15:41:32.395Z,98081.38
2022-08-17T15:43:58.873Z,98085.81
2022-08-17T15:46:26.733Z,98081.94
2022-08-17T15:48:58.181Z,98089.56
2022-08-17T15:51:30.224Z,98102.69
2022-08-17T15:54:04.462Z,98111.84
2022-08-17T15:56:46.041Z,98103.69
2022-08-17T15:59:12.628Z,98107.03
2022-08-17T16:02:27.742Z,98109.50
2022-08-17T16:04:29.920Z,98106.75
2022-08-17T16:06:58.009Z,98120.44
2022-08-17T16:09:24.463Z,98127.00
2022-08-17T16:11:52.798Z,98123.66
2022-08-17T16:14:22.313Z,98127.50
2022-08-17T16:16:50.555Z,98125.59
2022-08-17T16:19:17.058Z,98121.50
2022-08-17T16:21:43.534Z,98153.22
2022-08-17T16:24:13.717Z,98175.09
2022-08-17T16:26:42.587Z,98190.66
2022-08-17T16:29:09.138Z,98195.19
2022-08-17T16:31:37.493Z,98198.63
2022-08-17T16:34:17.527Z,98202.25
2022-08-17T16:36:53.667Z,98189.38
2022-08-17T16:39:22.965Z,98193.75
2022-08-17T16:41:50.208Z,98177.88
2022-08-17T16:44:19.163Z,98160.88
2022-08-17T16:46:46.984Z,98153.22
2022-08-17T16:49:36.103Z,98137.34
2022-08-17T16:52:01.632Z,98100.13
2022-08-17T16:54:28.094Z,98085.31
2022-08-17T16:56:55.578Z,98058.16
2022-08-17T16:59:31.146Z,98032.75
2022-08-17T17:02:04.644Z,98002.81
2022-08-17T17:04:35.042Z,97991.31
2022-08-17T17:07:33.782Z,97980.22
2022-08-17T17:10:08.106Z,97964.53
2022-08-17T17:13:01.395Z,97957.13
2022-08-17T17:15:27.940Z,97955.28
2022-08-17T17:18:06.058Z,97958.91
2022-08-17T17:20:45.675Z,97946.44
2022-08-17T17:23:35.718Z,97950.53
2022-08-17T17:26:11.300Z,97959.03
2022-08-17T17:28:50.045Z,97955.28
2022-08-17T17:31:19.614Z,97962.63
2022-08-17T17:33:52.370Z,97975.94
2022-08-17T17:36:31.080Z,97992.44
2022-08-17T17:39:03.807Z,97996.75
2022-08-17T17:41:36.780Z,98008.88
2022-08-17T17:44:11.973Z,98007.56
2022-08-17T17:46:43.207Z,98007.00
2022-08-17T17:49:14.192Z,98020.78
2022-08-17T17:52:06.315Z,98030.97
2022-08-17T17:55:05.933Z,98036.88
2022-08-17T17:57:44.729Z,98032.94
2022-08-17T18:00:21.694Z,98045.53
2022-08-17T18:02:57.805Z,98054.75
2022-08-17T18:05:34.468Z,98049.50
2022-08-17T18:08:20.903Z,98058.38
2022-08-17T18:11:06.157Z,98068.09
2022-08-17T18:14:26.898Z,98081.66
2022-08-17T18:16:57.389Z,98093.91
2022-08-17T18:19:26.281Z,98093.59
2022-08-17T18:22:00.627Z,98106.69
2022-08-17T18:24:35.940Z,98125.06
2022-08-17T18:27:19.007Z,98141.38
2022-08-17T18:29:47.595Z,98154.81
2022-08-17T18:32:19.406Z,98174.34
2022-08-17T18:34:49.153Z,98188.84
2022-08-17T18:37:31.736Z,98193.97
2022-08-17T18:39:58.544Z,98198.56
2022-08-17T18:42:28.856Z,98213.41
2022-08-17T18:44:55.956Z,98221.03
2022-08-17T18:47:28.773Z,98234.88
2022-08-17T18:49:58.846Z,98247.97
2022-08-17T18:52:31.520Z,98237.19
2022-08-17T18:55:08.743Z,98235.69
2022-08-17T18:57:39.489Z,98248.78
2022-08-17T19:00:32.785Z,98270.16
2022-08-17T19:03:18.640Z,98273.03
2022-08-17T19:05:54.301Z,98271.88
2022-08-17T19:08:34.958Z,98266.38
2022-08-17T19:11:06.112Z,98276.13
2022-08-17T19:14:05.592Z,98270.47
2022-08-17T19:16:41.293Z,98274.97
2022-08-17T19:19:19.551Z,98270.22
2022-08-17T19:21:58.940Z,98266.44
2022-08-17T19:24:29.889Z,98264.28
2022-08-17T19:27:23.535Z,98255.06
2022-08-17T19:30:11.701Z,98246.69
2022-08-17T19:32:38.590Z,98241.75
2022-08-17T19:35:11.424Z,98251.66
2022-08-17T19:38:13.282Z,98253.31
2022-08-17T19:41:01.064Z,98270.91
2022-08-17T19:43:51.193Z,98276.81
2022-08-17T19:46:48.789Z,98257.28
2022-08-17T19:49:40.950Z,98265.09
2022-08-17T19:52:42.747Z,98257.56
2022-08-17T19:55:36.064Z,98266.88
2022-08-17T19:58:18.420Z,98276.41
2022-08-17T20:00:51.091Z,98291.66
2022-08-17T20:03:21.999Z,98301.34
2022-08-17T20:06:11.882Z,98299.00
2022-08-17T20:08:56.685Z,98310.44
2022-08-17T20:11:45.280Z,98317.78
2022-08-17T20:14:15.871Z,98324.13
2022-08-17T20:16:42.668Z,98326.41
2022-08-17T20:19:41.467Z,98335.59
2022-08-17T20:22:18.501Z,98340.56
2022-08-17T20:24:51.083Z,98360.88
2022-08-17T20:27:31.308Z,98364.28
2022-08-17T20:30:00.897Z,98353.09
2022-08-17T20:32:35.351Z,98359.91
2022-08-17T20:35:18.004Z,98367.56
2022-08-17T20:38:02.117Z,98384.81
2022-08-17T20:40:32.368Z,98392.59
2022-08-17T20:42:59.554Z,98386.34
2022-08-17T20:45:26.261Z,98378.19
2022-08-17T20:48:30.506Z,98355.41
2022-08-17T20:50:52.489Z,98348.09
2022-08-17T20:53:54.072Z,98366.75
2022-08-17T20:56:46.519Z,98356.09
2022-08-17T20:59:30.286Z,98369.09
2022-08-17T21:02:18.520Z,98362.72
2022-08-17T21:04:52.628Z,98360.84
2022-08-17T21:07:52.054Z,98367.69
2022-08-17T21:10:21.449Z,98358.00
2022-08-17T21:12:52.280Z,98368.78
2022-08-17T21:15:43.749Z,98387.75
2022-08-17T21:18:47.665Z,98389.94
2022-08-17T21:21:39.620Z,98401.97
2022-08-17T21:24:21.196Z,98411.50
2022-08-17T21:27:20.045Z,98424.66
2022-08-17T21:30:13.792Z,98420.63
2022-08-17T21:32:43.067Z,98427.69
2022-08-17T21:35:28.213Z,98417.59
2022-08-17T21:38:04.292Z,98420.91
2022-08-17T21:40:33.612Z,98425.38
2022-08-17T21:43:23.458Z,98436.88
2022-08-17T21:45:58.989Z,98450.84
2022-08-17T21:48:27.371Z,98446.97
2022-08-17T21:51:13.056Z,98451.97
2022-08-17T21:53:46.954Z,98451.97
2022-08-17T21:56:41.363Z,98452.34
2022-08-17T21:59:19.252Z,98459.50
2022-08-17T22:02:19.657Z,98463.22
2022-08-17T22:05:00.445Z,98461.56
2022-08-17T22:07:59.923Z,98461.41
2022-08-17T22:10:34.041Z,98448.25
2022-08-17T22:13:16.565Z,98454.06
2022-08-17T22:15:47.488Z,98446.97
2022-08-17T22:18:24.912Z,98440.50
2022-08-17T22:20:54.999Z,98445.47
2022-08-17T22:23:52.787Z,98445.75
2022-08-17T22:26:22.404Z,98431.00
2022-08-17T22:28:58.060Z,98435.16
2022-08-17T22:31:27.778Z,98424.63
2022-08-17T22:34:03.360Z,98422.13
2022-08-17T22:36:35.760Z,98420.97
2022-08-17T22:39:02.135Z,98418.31
2022-08-17T22:41:34.277Z,98409.97
2022-08-17T22:44:27.277Z,98396.50
2022-08-17T22:47:01.701Z,98399.34
2022-08-17T22:49:54.092Z,98403.13
2022-08-17T22:52:20.995Z,98410.66
2022-08-17T22:55:09.587Z,98414.19
2022-08-17T22:57:56.233Z,98419.53
2022-08-17T23:00:30.643Z,98426.16
2022-08-17T23:03:06.265Z,98434.53
2022-08-17T23:05:34.012Z,98436.38
2022-08-17T23:08:00.433Z,98429.84
2022-08-17T23:10:27.565Z,98434.22
2022-08-17T23:12:57.355Z,98437.38
2022-08-17T23:15:26.150Z,98426.16
2022-08-17T23:17:52.752Z,98428.97
2022-08-17T23:20:19.540Z,98431.00
2022-08-17T23:22:52.261Z,98424.16
2022-08-17T23:25:27.834Z,98423.97
2022-08-17T23:27:54.837Z,98415.06
2022-08-17T23:30:27.129Z,98422.59
2022-08-17T23:32:55.761Z,98418.59
2022-08-17T23:35:39.027Z,98418.53
2022-08-17T23:38:08.674Z,98414.91
2022-08-17T23:40:35.169Z,98420.66
2022-08-17T23:43:04.478Z,98419.34
2022-08-17T23:45:32.457Z,98422.91
2022-08-17T23:47:58.792Z,98416.16
2022-08-17T23:50:25.263Z,98412.16
2022-08-17T23:52:56.537Z,98415.44
2022-08-17T23:55:22.842Z,98416.72
2022-08-17T23:57:49.988Z,98412.56
